createdAt,value
2018-01-30T00:00:16.165Z,1014.81
2018-01-30T00:01:16.581Z,1014.86
2018-01-30T00:02:38.156Z,1014.79
2018-01-30T00:03:17.452Z,1014.84
2018-01-30T00:04:17.863Z,1014.97
2018-01-30T00:05:18.272Z,1014.88
2018-01-30T00:06:18.697Z,1014.84
2018-01-30T00:07:19.112Z,1014.89
2018-01-30T00:08:40.697Z,1014.78
2018-01-30T00:09:19.964Z,1014.65
2018-01-30T00:10:20.420Z,1014.82
2018-01-30T00:11:20.832Z,1014.88
2018-01-30T00:12:21.310Z,1014.87
2018-01-30T00:13:21.643Z,1014.83
2018-01-30T00:14:43.226Z,1014.88
2018-01-30T00:15:22.495Z,1014.76
2018-01-30T00:16:22.968Z,1014.85
2018-01-30T00:17:23.334Z,1014.90
2018-01-30T00:18:23.791Z,1014.92
2018-01-30T00:19:24.182Z,1015.00
2018-01-30T00:20:45.769Z,1014.92
2018-01-30T00:21:25.032Z,1014.94
2018-01-30T00:22:25.475Z,1014.98
2018-01-30T00:23:25.922Z,1015.00
2018-01-30T00:24:26.307Z,1014.97
2018-01-30T00:25:26.715Z,1015.09
2018-01-30T00:26:48.299Z,1015.20
2018-01-30T00:27:27.576Z,1015.24
2018-01-30T00:28:27.987Z,1015.23
2018-01-30T00:29:28.438Z,1015.22
2018-01-30T00:30:28.849Z,1015.16
2018-01-30T00:31:29.243Z,1015.15
2018-01-30T00:32:50.826Z,1015.25
2018-01-30T00:33:30.096Z,1015.26
2018-01-30T00:34:30.520Z,1015.25
2018-01-30T00:35:30.968Z,1015.34
2018-01-30T00:36:31.389Z,1015.27
2018-01-30T00:37:31.779Z,1015.35
2018-01-30T00:38:53.366Z,1015.35
2018-01-30T00:39:32.632Z,1015.39
2018-01-30T00:40:33.048Z,1015.42
2018-01-30T00:41:33.480Z,1015.34
2018-01-30T00:42:33.907Z,1015.32
2018-01-30T00:43:34.327Z,1015.41
2018-01-30T00:44:55.901Z,1015.47
2018-01-30T00:45:35.165Z,1015.47
2018-01-30T00:46:35.626Z,1015.52
2018-01-30T00:47:36.004Z,1015.59
2018-01-30T00:48:36.487Z,1015.60
2018-01-30T00:49:36.848Z,1015.59
2018-01-30T00:50:58.431Z,1015.53
2018-01-30T00:51:37.693Z,1015.59
2018-01-30T00:52:38.138Z,1015.62
2018-01-30T00:53:38.544Z,1015.64
2018-01-30T00:54:38.960Z,1015.70
2018-01-30T00:55:39.381Z,1015.66
2018-01-30T00:57:00.962Z,1015.68
2018-01-30T00:57:40.231Z,1015.64
2018-01-30T00:58:40.652Z,1015.67
2018-01-30T00:59:41.079Z,1015.70
2018-01-30T01:00:41.491Z,1015.87
2018-01-30T01:01:41.924Z,1015.80
2018-01-30T01:03:03.491Z,1015.82
2018-01-30T01:03:42.760Z,1015.88
2018-01-30T01:04:43.178Z,1015.93
2018-01-30T01:05:43.604Z,1015.98
2018-01-30T01:06:44.030Z,1016.05
2018-01-30T01:07:44.449Z,1015.91
2018-01-30T01:09:06.022Z,1015.87
2018-01-30T01:09:45.295Z,1015.88
2018-01-30T01:10:45.726Z,1015.95
2018-01-30T01:11:46.128Z,1016.00
2018-01-30T01:12:46.564Z,1016.02
2018-01-30T01:13:47.058Z,1016.02
2018-01-30T01:15:08.555Z,1016.15
2018-01-30T01:15:47.826Z,1016.07
2018-01-30T01:16:48.256Z,1016.10
2018-01-30T01:17:48.665Z,1016.11
2018-01-30T01:18:49.092Z,1016.17
2018-01-30T01:19:49.522Z,1016.14
2018-01-30T01:21:11.086Z,1016.02
2018-01-30T01:21:50.355Z,1016.18
2018-01-30T01:22:50.780Z,1016.20
2018-01-30T01:23:51.211Z,1016.22
2018-01-30T01:24:51.619Z,1016.13
2018-01-30T01:25:52.064Z,1016.25
2018-01-30T01:27:13.629Z,1016.16
2018-01-30T01:27:52.898Z,1016.14
2018-01-30T01:28:53.316Z,1016.12
2018-01-30T01:29:53.758Z,1016.31
2018-01-30T01:30:54.158Z,1016.25
2018-01-30T01:31:54.582Z,1016.28
2018-01-30T01:33:16.164Z,1016.39
2018-01-30T01:33:55.429Z,1016.34
2018-01-30T01:34:55.853Z,1016.27
2018-01-30T01:35:56.273Z,1016.20
2018-01-30T01:36:56.692Z,1016.29
2018-01-30T01:37:57.136Z,1016.42
2018-01-30T01:39:18.689Z,1016.46
2018-01-30T01:39:57.957Z,1016.35
2018-01-30T01:40:58.382Z,1016.61
2018-01-30T01:41:58.801Z,1016.61
2018-01-30T01:42:59.225Z,1016.58
2018-01-30T01:43:59.750Z,1016.53
2018-01-30T01:45:21.222Z,1016.53
2018-01-30T01:46:00.489Z,1016.56
2018-01-30T01:47:00.927Z,1016.68
2018-01-30T01:48:01.337Z,1016.61
2018-01-30T01:49:01.757Z,1016.52
2018-01-30T01:50:02.173Z,1016.61
2018-01-30T01:51:23.750Z,1016.55
2018-01-30T01:52:03.025Z,1016.60
2018-01-30T01:53:03.453Z,1016.57
2018-01-30T01:54:03.867Z,1016.47
2018-01-30T01:55:04.290Z,1016.56
2018-01-30T01:56:04.710Z,1016.45
2018-01-30T01:57:26.287Z,1016.60
2018-01-30T01:58:05.549Z,1016.61
2018-01-30T01:59:05.976Z,1016.58
2018-01-30T02:00:06.398Z,1016.65
2018-01-30T02:01:06.826Z,1016.58
2018-01-30T02:02:07.257Z,1016.63
2018-01-30T02:03:28.850Z,1016.64
2018-01-30T02:04:08.085Z,1016.63
2018-01-30T02:05:08.518Z,1016.67
2018-01-30T02:06:08.932Z,1016.65
2018-01-30T02:07:09.357Z,1016.64
2018-01-30T02:08:09.772Z,1016.74
2018-01-30T02:09:31.355Z,1016.64
2018-01-30T02:10:10.613Z,1016.57
2018-01-30T02:11:11.053Z,1016.68
2018-01-30T02:12:11.468Z,1016.64
2018-01-30T02:13:11.887Z,1016.87
2018-01-30T02:14:12.303Z,1016.74
2018-01-30T02:15:33.886Z,1016.90
2018-01-30T02:16:13.161Z,1016.89
2018-01-30T02:17:13.579Z,1016.91
2018-01-30T02:18:13.997Z,1016.98
2018-01-30T02:19:14.420Z,1016.80
2018-01-30T02:20:14.838Z,1016.89
2018-01-30T02:21:36.434Z,1016.88
2018-01-30T02:22:15.683Z,1016.94
2018-01-30T02:23:16.109Z,1017.02
2018-01-30T02:24:16.537Z,1016.97
2018-01-30T02:25:16.953Z,1017.04
2018-01-30T02:26:17.375Z,1017.07
2018-01-30T02:27:38.954Z,1016.92
2018-01-30T02:28:18.213Z,1017.01
2018-01-30T02:29:18.647Z,1017.00
2018-01-30T02:30:19.068Z,1017.01
2018-01-30T02:31:19.486Z,1016.98
2018-01-30T02:32:19.906Z,1017.02
2018-01-30T02:33:41.482Z,1016.97
2018-01-30T02:34:20.753Z,1017.07
2018-01-30T02:35:21.175Z,1017.08
2018-01-30T02:36:21.600Z,1017.11
2018-01-30T02:37:22.015Z,1017.14
2018-01-30T02:38:22.436Z,1017.16
2018-01-30T02:39:44.016Z,1017.24
2018-01-30T02:40:23.302Z,1017.23
2018-01-30T02:41:23.756Z,1017.34
2018-01-30T02:42:24.128Z,1017.29
2018-01-30T02:43:24.554Z,1017.38
2018-01-30T02:44:24.976Z,1017.38
2018-01-30T02:45:46.548Z,1017.37
2018-01-30T02:46:25.821Z,1017.37
2018-01-30T02:47:26.247Z,1017.32
2018-01-30T02:48:26.661Z,1017.30
2018-01-30T02:49:27.080Z,1017.38
2018-01-30T02:50:27.504Z,1017.39
2018-01-30T02:51:49.084Z,1017.52
2018-01-30T02:52:28.356Z,1017.45
2018-01-30T02:53:28.783Z,1017.51
2018-01-30T02:54:29.199Z,1017.46
2018-01-30T02:55:29.620Z,1017.42
2018-01-30T02:56:30.039Z,1017.54
2018-01-30T02:57:51.634Z,1017.43
2018-01-30T02:58:30.890Z,1017.41
2018-01-30T02:59:31.312Z,1017.41
2018-01-30T03:00:31.730Z,1017.59
2018-01-30T03:01:32.150Z,1017.56
2018-01-30T03:02:32.571Z,1017.57
2018-01-30T03:03:54.148Z,1017.61
2018-01-30T03:04:33.426Z,1017.54
2018-01-30T03:05:33.847Z,1017.63
2018-01-30T03:06:34.262Z,1017.58
2018-01-30T03:07:34.683Z,1017.56
2018-01-30T03:08:35.162Z,1017.65
2018-01-30T03:09:56.701Z,1017.65
2018-01-30T03:10:35.960Z,1017.72
2018-01-30T03:11:36.376Z,1017.66
2018-01-30T03:12:36.796Z,1017.68
2018-01-30T03:13:37.227Z,1017.58
2018-01-30T03:14:37.646Z,1017.72
2018-01-30T03:15:59.218Z,1017.80
2018-01-30T03:16:38.493Z,1017.76
2018-01-30T03:17:38.907Z,1017.77
2018-01-30T03:18:39.331Z,1017.69
2018-01-30T03:19:39.758Z,1017.73
2018-01-30T03:20:40.177Z,1017.83
2018-01-30T03:22:01.762Z,1017.81
2018-01-30T03:22:41.022Z,1017.82
2018-01-30T03:23:41.447Z,1017.83
2018-01-30T03:24:41.872Z,1017.73
2018-01-30T03:25:42.285Z,1017.71
2018-01-30T03:26:42.720Z,1017.78
2018-01-30T03:28:04.287Z,1017.79
2018-01-30T03:28:43.559Z,1017.81
2018-01-30T03:29:43.978Z,1017.80
2018-01-30T03:30:44.404Z,1017.79
2018-01-30T03:31:44.859Z,1017.81
2018-01-30T03:32:45.243Z,1017.82
2018-01-30T03:34:06.820Z,1017.88
2018-01-30T03:34:46.088Z,1017.86
2018-01-30T03:35:46.509Z,1017.88
2018-01-30T03:36:46.936Z,1017.87
2018-01-30T03:37:47.354Z,1017.92
2018-01-30T03:38:47.775Z,1017.93
2018-01-30T03:40:09.352Z,1017.92
2018-01-30T03:40:48.614Z,1017.96
2018-01-30T03:41:49.049Z,1017.89
2018-01-30T03:42:49.469Z,1017.85
2018-01-30T03:43:49.886Z,1017.92
2018-01-30T03:44:50.307Z,1017.82
2018-01-30T03:46:11.893Z,1017.89
2018-01-30T03:46:51.164Z,1017.92
2018-01-30T03:47:51.586Z,1017.96
2018-01-30T03:48:52.003Z,1018.01
2018-01-30T03:49:52.436Z,1017.98
2018-01-30T03:50:52.849Z,1017.94
2018-01-30T03:52:14.434Z,1018.02
2018-01-30T03:52:53.694Z,1018.02
2018-01-30T03:53:54.115Z,1017.86
2018-01-30T03:54:54.533Z,1017.95
2018-01-30T03:55:54.956Z,1018.02
2018-01-30T03:56:55.373Z,1018.04
2018-01-30T03:58:16.956Z,1017.99
2018-01-30T03:58:56.235Z,1018.00
2018-01-30T03:59:56.649Z,1017.98
2018-01-30T04:00:57.065Z,1017.85
2018-01-30T04:01:57.488Z,1018.03
2018-01-30T04:02:57.908Z,1018.02
2018-01-30T04:04:19.498Z,1017.99
2018-01-30T04:04:58.764Z,1017.97
2018-01-30T04:05:59.189Z,1018.00
2018-01-30T04:06:59.602Z,1018.06
2018-01-30T04:08:00.042Z,1018.08
2018-01-30T04:09:00.447Z,1018.04
2018-01-30T04:10:22.032Z,1017.96
2018-01-30T04:11:01.291Z,1018.02
2018-01-30T04:12:01.717Z,1017.94
2018-01-30T04:13:02.136Z,1018.13
2018-01-30T04:14:02.562Z,1017.93
2018-01-30T04:15:02.980Z,1017.98
2018-01-30T04:16:24.561Z,1018.03
2018-01-30T04:17:03.831Z,1018.00
2018-01-30T04:18:04.256Z,1017.98
2018-01-30T04:19:04.674Z,1017.94
2018-01-30T04:20:05.090Z,1017.90
2018-01-30T04:21:05.521Z,1018.02
2018-01-30T04:22:27.100Z,1017.95
2018-01-30T04:23:06.372Z,1017.96
2018-01-30T04:24:06.781Z,1018.02
2018-01-30T04:25:07.206Z,1017.88
2018-01-30T04:26:07.626Z,1017.84
2018-01-30T04:27:08.048Z,1017.95
2018-01-30T04:28:29.641Z,1017.89
2018-01-30T04:29:08.895Z,1017.89
2018-01-30T04:30:09.313Z,1018.04
2018-01-30T04:31:09.742Z,1017.97
2018-01-30T04:32:10.164Z,1018.08
2018-01-30T04:33:10.578Z,1017.95
2018-01-30T04:34:32.174Z,1017.98
2018-01-30T04:35:11.430Z,1018.07
2018-01-30T04:36:11.849Z,1017.99
2018-01-30T04:37:12.283Z,1017.96
2018-01-30T04:38:12.690Z,1017.97
2018-01-30T04:39:13.115Z,1018.11
2018-01-30T04:40:34.742Z,1018.03
2018-01-30T04:41:13.959Z,1018.04
2018-01-30T04:42:14.379Z,1018.18
2018-01-30T04:43:14.811Z,1018.18
2018-01-30T04:44:15.233Z,1018.18
2018-01-30T04:45:15.657Z,1018.14
2018-01-30T04:46:37.242Z,1018.21
2018-01-30T04:47:16.557Z,1018.24
2018-01-30T04:48:16.914Z,1018.26
2018-01-30T04:49:17.355Z,1018.28
2018-01-30T04:50:17.759Z,1018.27
2018-01-30T04:51:18.203Z,1018.31
2018-01-30T04:52:39.771Z,1018.30
2018-01-30T04:53:19.043Z,1018.29
2018-01-30T04:54:19.453Z,1018.33
2018-01-30T04:55:19.897Z,1018.25
2018-01-30T04:56:20.300Z,1018.41
2018-01-30T04:57:20.717Z,1018.33
2018-01-30T04:58:42.290Z,1018.30
2018-01-30T04:59:21.558Z,1018.30
2018-01-30T05:00:21.985Z,1018.34
2018-01-30T05:01:22.413Z,1018.35
2018-01-30T05:02:22.831Z,1018.34
2018-01-30T05:03:23.348Z,1018.41
2018-01-30T05:04:44.830Z,1018.40
2018-01-30T05:05:24.097Z,1018.48
2018-01-30T05:06:24.512Z,1018.53
2018-01-30T05:07:24.940Z,1018.50
2018-01-30T05:08:25.356Z,1018.54
2018-01-30T05:09:25.793Z,1018.57
2018-01-30T05:10:47.368Z,1018.51
2018-01-30T05:11:26.628Z,1018.44
2018-01-30T05:12:27.050Z,1018.42
2018-01-30T05:13:27.484Z,1018.48
2018-01-30T05:14:27.895Z,1018.47
2018-01-30T05:15:28.316Z,1018.58
2018-01-30T05:16:49.901Z,1018.47
2018-01-30T05:17:29.159Z,1018.47
2018-01-30T05:18:29.589Z,1018.44
2018-01-30T05:19:30.023Z,1018.43
2018-01-30T05:20:30.430Z,1018.54
2018-01-30T05:21:30.921Z,1018.42
2018-01-30T05:22:52.431Z,1018.29
2018-01-30T05:23:31.702Z,1018.49
2018-01-30T05:24:32.132Z,1018.53
2018-01-30T05:25:32.539Z,1018.55
2018-01-30T05:26:32.964Z,1018.50
2018-01-30T05:27:33.391Z,1018.43
2018-01-30T05:28:54.989Z,1018.52
2018-01-30T05:29:34.234Z,1018.50
2018-01-30T05:30:34.661Z,1018.53
2018-01-30T05:31:35.077Z,1018.50
2018-01-30T05:32:35.518Z,1018.51
2018-01-30T05:33:35.921Z,1018.49
2018-01-30T05:34:57.496Z,1018.53
2018-01-30T05:35:36.765Z,1018.49
2018-01-30T05:36:37.212Z,1018.48
2018-01-30T05:37:37.608Z,1018.48
2018-01-30T05:38:38.245Z,1018.47
2018-01-30T05:39:38.451Z,1018.50
2018-01-30T05:41:00.039Z,1018.56
2018-01-30T05:41:39.305Z,1018.47
2018-01-30T05:42:39.719Z,1018.58
2018-01-30T05:43:40.147Z,1018.57
2018-01-30T05:44:40.568Z,1018.60
2018-01-30T05:45:40.993Z,1018.49
2018-01-30T05:47:02.566Z,1018.56
2018-01-30T05:47:41.841Z,1018.56
2018-01-30T05:48:42.258Z,1018.53
2018-01-30T05:49:42.675Z,1018.56
2018-01-30T05:50:43.098Z,1018.48
2018-01-30T05:51:43.527Z,1018.61
2018-01-30T05:53:05.096Z,1018.61
2018-01-30T05:53:44.395Z,1018.67
2018-01-30T05:54:44.788Z,1018.61
2018-01-30T05:55:45.206Z,1018.65
2018-01-30T05:56:45.633Z,1018.65
2018-01-30T05:57:46.052Z,1018.63
2018-01-30T05:59:07.638Z,1018.63
2018-01-30T05:59:46.899Z,1018.62
2018-01-30T06:00:47.360Z,1018.62
2018-01-30T06:01:47.741Z,1018.64
2018-01-30T06:02:48.165Z,1018.69
2018-01-30T06:03:48.584Z,1018.77
2018-01-30T06:05:10.171Z,1018.75
2018-01-30T06:05:49.435Z,1018.70
2018-01-30T06:06:49.852Z,1018.72
2018-01-30T06:07:50.279Z,1018.75
2018-01-30T06:08:50.694Z,1018.78
2018-01-30T06:09:51.127Z,1018.82
2018-01-30T06:11:12.700Z,1018.71
2018-01-30T06:11:52.012Z,1018.72
2018-01-30T06:12:52.384Z,1018.84
2018-01-30T06:13:52.812Z,1018.88
2018-01-30T06:14:53.281Z,1018.85
2018-01-30T06:15:53.653Z,1018.93
2018-01-30T06:17:15.229Z,1018.92
2018-01-30T06:17:54.500Z,1018.95
2018-01-30T06:18:54.917Z,1018.97
2018-01-30T06:19:55.340Z,1019.01
2018-01-30T06:20:55.763Z,1019.01
2018-01-30T06:21:56.189Z,1019.16
2018-01-30T06:23:17.869Z,1019.18
2018-01-30T06:23:57.127Z,1019.10
2018-01-30T06:24:57.453Z,1019.12
2018-01-30T06:25:57.880Z,1019.15
2018-01-30T06:26:58.298Z,1019.16
2018-01-30T06:27:58.721Z,1019.20
2018-01-30T06:29:20.310Z,1019.22
2018-01-30T06:29:59.560Z,1019.24
2018-01-30T06:30:59.983Z,1019.24
2018-01-30T06:32:00.404Z,1019.24
2018-01-30T06:33:00.843Z,1019.32
2018-01-30T06:34:01.255Z,1019.31
2018-01-30T06:35:22.836Z,1019.36
2018-01-30T06:36:02.094Z,1019.40
2018-01-30T06:37:02.534Z,1019.47
2018-01-30T06:38:02.953Z,1019.39
2018-01-30T06:39:03.371Z,1019.47
2018-01-30T06:40:03.792Z,1019.51
2018-01-30T06:41:25.366Z,1019.52
2018-01-30T06:42:04.631Z,1019.55
2018-01-30T06:43:05.046Z,1019.53
2018-01-30T06:44:05.484Z,1019.56
2018-01-30T06:45:05.912Z,1019.65
2018-01-30T06:46:06.323Z,1019.60
2018-01-30T06:47:27.905Z,1019.64
2018-01-30T06:48:07.162Z,1019.74
2018-01-30T06:49:07.596Z,1019.70
2018-01-30T06:50:08.026Z,1019.70
2018-01-30T06:51:08.437Z,1019.77
2018-01-30T06:52:08.858Z,1019.74
2018-01-30T06:53:30.434Z,1019.76
2018-01-30T06:54:09.700Z,1019.73
2018-01-30T06:55:10.113Z,1019.76
2018-01-30T06:56:10.569Z,1019.81
2018-01-30T06:57:10.978Z,1019.82
2018-01-30T06:58:11.392Z,1019.84
2018-01-30T06:59:33.033Z,1019.79
2018-01-30T07:00:12.235Z,1019.79
2018-01-30T07:01:12.674Z,1019.83
2018-01-30T07:02:13.085Z,1019.95
2018-01-30T07:03:13.512Z,1019.81
2018-01-30T07:04:13.922Z,1019.80
2018-01-30T07:05:35.502Z,1019.95
2018-01-30T07:06:14.765Z,1019.93
2018-01-30T07:07:15.201Z,1019.86
2018-01-30T07:08:15.615Z,1019.96
2018-01-30T07:09:16.043Z,1019.96
2018-01-30T07:10:16.456Z,1019.95
2018-01-30T07:11:38.037Z,1019.97
2018-01-30T07:12:17.306Z,1019.97
2018-01-30T07:13:17.728Z,1020.01
2018-01-30T07:14:18.156Z,1019.98
2018-01-30T07:15:18.569Z,1019.99
2018-01-30T07:16:18.993Z,1019.93
2018-01-30T07:17:40.569Z,1019.94
2018-01-30T07:18:19.839Z,1019.97
2018-01-30T07:19:20.267Z,1020.08
2018-01-30T07:20:20.683Z,1019.94
2018-01-30T07:21:21.104Z,1019.95
2018-01-30T07:22:21.531Z,1020.00
2018-01-30T07:23:43.112Z,1020.00
2018-01-30T07:24:22.372Z,1020.05
2018-01-30T07:25:22.800Z,1020.09
2018-01-30T07:26:23.219Z,1020.13
2018-01-30T07:27:23.745Z,1020.03
2018-01-30T07:28:24.067Z,1020.08
2018-01-30T07:29:45.647Z,1020.01
2018-01-30T07:30:24.912Z,1020.12
2018-01-30T07:31:25.341Z,1020.19
2018-01-30T07:32:25.756Z,1020.20
2018-01-30T07:33:26.179Z,1020.17
2018-01-30T07:34:26.623Z,1020.14
2018-01-30T07:35:48.181Z,1020.18
2018-01-30T07:36:27.458Z,1020.30
2018-01-30T07:37:27.873Z,1020.28
2018-01-30T07:38:28.294Z,1020.26
2018-01-30T07:39:28.718Z,1020.29
2018-01-30T07:40:29.145Z,1020.31
2018-01-30T07:41:50.726Z,1020.34
2018-01-30T07:42:29.986Z,1020.33
2018-01-30T07:43:30.406Z,1020.34
2018-01-30T07:44:30.835Z,1020.36
2018-01-30T07:45:31.250Z,1020.45
2018-01-30T07:46:31.675Z,1020.36
2018-01-30T07:47:53.257Z,1020.41
2018-01-30T07:48:32.524Z,1020.38
2018-01-30T07:49:32.948Z,1020.47
2018-01-30T07:50:33.364Z,1020.41
2018-01-30T07:51:33.787Z,1020.34
2018-01-30T07:52:34.211Z,1020.41
2018-01-30T07:53:55.786Z,1020.28
2018-01-30T07:54:35.060Z,1020.43
2018-01-30T07:55:35.479Z,1020.46
2018-01-30T07:56:35.902Z,1020.52
2018-01-30T07:57:36.325Z,1020.52
2018-01-30T07:58:36.748Z,1020.53
2018-01-30T07:59:58.326Z,1020.49
2018-01-30T08:00:37.598Z,1020.49
2018-01-30T08:01:38.016Z,1020.65
2018-01-30T08:02:38.440Z,1020.52
2018-01-30T08:03:38.860Z,1020.52
2018-01-30T08:04:39.281Z,1020.62
2018-01-30T08:06:00.869Z,1020.52
2018-01-30T08:06:40.130Z,1020.60
2018-01-30T08:07:40.555Z,1020.53
2018-01-30T08:08:40.973Z,1020.50
2018-01-30T08:09:41.399Z,1020.54
2018-01-30T08:10:41.825Z,1020.52
2018-01-30T08:12:03.405Z,1020.52
2018-01-30T08:12:42.665Z,1020.54
2018-01-30T08:13:43.097Z,1020.46
2018-01-30T08:14:43.511Z,1020.47
2018-01-30T08:15:43.939Z,1020.50
2018-01-30T08:16:44.356Z,1020.62
2018-01-30T08:18:05.945Z,1020.55
2018-01-30T08:18:45.202Z,1020.56
2018-01-30T08:19:45.666Z,1020.53
2018-01-30T08:20:46.050Z,1020.55
2018-01-30T08:21:46.478Z,1020.54
2018-01-30T08:22:46.894Z,1020.52
2018-01-30T08:24:08.474Z,1020.50
2018-01-30T08:24:47.743Z,1020.58
2018-01-30T08:25:48.163Z,1020.61
2018-01-30T08:26:48.583Z,1020.60
2018-01-30T08:27:49.037Z,1020.59
2018-01-30T08:28:49.462Z,1020.67
2018-01-30T08:30:11.012Z,1020.66
2018-01-30T08:30:50.311Z,1020.63
2018-01-30T08:31:50.708Z,1020.57
2018-01-30T08:32:51.184Z,1020.51
2018-01-30T08:33:51.597Z,1020.53
2018-01-30T08:34:51.967Z,1020.58
2018-01-30T08:36:13.560Z,1020.65
2018-01-30T08:36:52.822Z,1020.58
2018-01-30T08:37:53.238Z,1020.66
2018-01-30T08:38:53.671Z,1020.68
2018-01-30T08:39:54.085Z,1020.64
2018-01-30T08:40:54.508Z,1020.74
2018-01-30T08:42:16.097Z,1020.73
2018-01-30T08:42:55.353Z,1020.73
2018-01-30T08:43:55.785Z,1020.72
2018-01-30T08:44:56.204Z,1020.73
2018-01-30T08:45:56.626Z,1020.80
2018-01-30T08:46:57.046Z,1020.82
2018-01-30T08:48:18.631Z,1020.82
2018-01-30T08:48:57.899Z,1020.79
2018-01-30T08:49:58.320Z,1020.78
2018-01-30T08:50:58.747Z,1020.88
2018-01-30T08:51:59.172Z,1020.86
2018-01-30T08:52:59.585Z,1020.88
2018-01-30T08:54:21.189Z,1020.84
2018-01-30T08:55:00.432Z,1020.87
2018-01-30T08:56:00.854Z,1020.74
2018-01-30T08:57:01.273Z,1020.90
2018-01-30T08:58:01.698Z,1020.84
2018-01-30T08:59:02.121Z,1020.88
2018-01-30T09:00:23.712Z,1020.94
2018-01-30T09:01:02.971Z,1020.90
2018-01-30T09:02:03.400Z,1020.86
2018-01-30T09:03:03.817Z,1020.93
2018-01-30T09:04:04.241Z,1020.81
2018-01-30T09:05:04.661Z,1020.91
2018-01-30T09:06:26.249Z,1020.92
2018-01-30T09:07:05.513Z,1020.89
2018-01-30T09:08:05.933Z,1020.90
2018-01-30T09:09:06.360Z,1020.87
2018-01-30T09:10:06.781Z,1020.90
2018-01-30T09:11:07.207Z,1020.90
2018-01-30T09:12:28.785Z,1020.93
2018-01-30T09:13:08.049Z,1021.04
2018-01-30T09:14:08.467Z,1021.00
2018-01-30T09:15:08.902Z,1021.09
2018-01-30T09:16:09.327Z,1021.11
2018-01-30T09:17:09.744Z,1021.14
2018-01-30T09:18:31.362Z,1021.14
2018-01-30T09:19:10.600Z,1021.08
2018-01-30T09:20:11.018Z,1021.13
2018-01-30T09:21:11.436Z,1021.15
2018-01-30T09:22:11.860Z,1021.17
2018-01-30T09:23:12.296Z,1021.18
2018-01-30T09:24:33.866Z,1021.18
2018-01-30T09:25:13.137Z,1021.20
2018-01-30T09:26:13.567Z,1021.18
2018-01-30T09:27:13.977Z,1021.13
2018-01-30T09:28:14.405Z,1021.15
2018-01-30T09:29:14.825Z,1021.16
2018-01-30T09:30:36.406Z,1021.10
2018-01-30T09:31:15.679Z,1021.13
2018-01-30T09:32:16.096Z,1021.17
2018-01-30T09:33:16.519Z,1021.11
2018-01-30T09:34:16.950Z,1021.26
2018-01-30T09:35:17.371Z,1021.23
2018-01-30T09:36:38.948Z,1021.20
2018-01-30T09:37:18.216Z,1021.24
2018-01-30T09:38:18.645Z,1021.30
2018-01-30T09:39:19.068Z,1021.35
2018-01-30T09:40:19.490Z,1021.36
2018-01-30T09:41:19.922Z,1021.31
2018-01-30T09:42:41.488Z,1021.30
2018-01-30T09:43:20.755Z,1021.28
2018-01-30T09:44:21.186Z,1021.37
2018-01-30T09:45:21.610Z,1021.32
2018-01-30T09:46:22.026Z,1021.29
2018-01-30T09:47:22.456Z,1021.40
2018-01-30T09:48:44.041Z,1021.34
2018-01-30T09:49:23.302Z,1021.31
2018-01-30T09:50:23.720Z,1021.45
2018-01-30T09:51:24.146Z,1021.43
2018-01-30T09:52:24.571Z,1021.42
2018-01-30T09:53:24.994Z,1021.41
2018-01-30T09:54:46.580Z,1021.32
2018-01-30T09:55:25.859Z,1021.44
2018-01-30T09:56:26.322Z,1021.46
2018-01-30T09:57:26.685Z,1021.50
2018-01-30T09:58:27.112Z,1021.47
2018-01-30T09:59:27.534Z,1021.43
2018-01-30T10:00:49.118Z,1021.42
2018-01-30T10:01:28.388Z,1021.44
2018-01-30T10:02:28.809Z,1021.42
2018-01-30T10:03:29.298Z,1021.46
2018-01-30T10:04:29.657Z,1021.34
2018-01-30T10:05:30.088Z,1021.38
2018-01-30T10:06:51.654Z,1021.47
2018-01-30T10:07:30.924Z,1021.51
2018-01-30T10:08:31.348Z,1021.51
2018-01-30T10:09:31.773Z,1021.44
2018-01-30T10:10:32.196Z,1021.40
2018-01-30T10:11:32.632Z,1021.38
2018-01-30T10:12:54.198Z,1021.40
2018-01-30T10:13:33.462Z,1021.41
2018-01-30T10:14:33.883Z,1021.40
2018-01-30T10:15:34.331Z,1021.48
2018-01-30T10:16:34.743Z,1021.43
2018-01-30T10:17:35.156Z,1021.48
2018-01-30T10:18:56.740Z,1021.40
2018-01-30T10:19:36.003Z,1021.47
2018-01-30T10:20:36.422Z,1021.48
2018-01-30T10:21:36.857Z,1021.51
2018-01-30T10:22:37.277Z,1021.45
2018-01-30T10:23:37.696Z,1021.43
2018-01-30T10:24:59.277Z,1021.46
2018-01-30T10:25:38.551Z,1021.52
2018-01-30T10:26:38.972Z,1021.47
2018-01-30T10:27:39.395Z,1021.46
2018-01-30T10:28:39.866Z,1021.48
2018-01-30T10:29:40.245Z,1021.53
2018-01-30T10:31:01.835Z,1021.50
2018-01-30T10:31:41.090Z,1021.52
2018-01-30T10:32:41.510Z,1021.54
2018-01-30T10:33:41.938Z,1021.51
2018-01-30T10:34:42.377Z,1021.52
2018-01-30T10:35:42.783Z,1021.52
2018-01-30T10:37:04.370Z,1021.54
2018-01-30T10:37:43.632Z,1021.53
2018-01-30T10:38:44.069Z,1021.51
2018-01-30T10:39:44.490Z,1021.46
2018-01-30T10:40:44.905Z,1021.47
2018-01-30T10:41:45.325Z,1021.48
2018-01-30T10:43:06.904Z,1021.49
2018-01-30T10:43:46.188Z,1021.54
2018-01-30T10:44:46.602Z,1021.40
2018-01-30T10:45:47.020Z,1021.51
2018-01-30T10:46:47.473Z,1021.49
2018-01-30T10:47:47.878Z,1021.50
2018-01-30T10:49:09.450Z,1021.53
2018-01-30T10:49:48.720Z,1021.51
2018-01-30T10:50:49.140Z,1021.50
2018-01-30T10:51:49.564Z,1021.51
2018-01-30T10:52:49.996Z,1021.49
2018-01-30T10:53:50.414Z,1021.48
2018-01-30T10:55:11.990Z,1021.40
2018-01-30T10:55:51.255Z,1021.47
2018-01-30T10:56:51.681Z,1021.42
2018-01-30T10:57:52.108Z,1021.46
2018-01-30T10:58:52.526Z,1021.42
2018-01-30T10:59:52.948Z,1021.42
2018-01-30T11:01:14.534Z,1021.49
2018-01-30T11:01:53.812Z,1021.52
2018-01-30T11:02:54.230Z,1021.45
2018-01-30T11:03:54.676Z,1021.47
2018-01-30T11:04:55.074Z,1021.53
2018-01-30T11:05:55.492Z,1021.55
2018-01-30T11:07:17.072Z,1021.62
2018-01-30T11:07:56.351Z,1021.50
2018-01-30T11:08:56.770Z,1021.59
2018-01-30T11:09:57.186Z,1021.60
2018-01-30T11:10:57.634Z,1021.54
2018-01-30T11:11:58.050Z,1021.59
2018-01-30T11:13:19.621Z,1021.57
2018-01-30T11:13:58.885Z,1021.63
2018-01-30T11:14:59.305Z,1021.67
2018-01-30T11:15:59.731Z,1021.68
2018-01-30T11:17:00.156Z,1021.81
2018-01-30T11:18:00.642Z,1021.71
2018-01-30T11:19:22.154Z,1021.65
2018-01-30T11:20:01.423Z,1021.77
2018-01-30T11:21:01.847Z,1021.77
2018-01-30T11:22:02.274Z,1021.69
2018-01-30T11:23:02.699Z,1021.80
2018-01-30T11:24:03.116Z,1021.80
2018-01-30T11:25:24.703Z,1021.85
2018-01-30T11:26:03.984Z,1021.83
2018-01-30T11:27:04.394Z,1021.90
2018-01-30T11:28:04.813Z,1021.88
2018-01-30T11:29:05.239Z,1021.95
2018-01-30T11:30:05.658Z,1021.93
2018-01-30T11:31:27.243Z,1021.91
2018-01-30T11:32:06.511Z,1021.85
2018-01-30T11:33:06.934Z,1021.80
2018-01-30T11:34:07.357Z,1021.87
2018-01-30T11:35:07.783Z,1021.87
2018-01-30T11:36:08.246Z,1021.84
2018-01-30T11:37:29.792Z,1021.89
2018-01-30T11:38:09.048Z,1021.86
2018-01-30T11:39:09.482Z,1021.84
2018-01-30T11:40:09.942Z,1021.81
2018-01-30T11:41:10.361Z,1021.76
2018-01-30T11:42:10.749Z,1021.80
2018-01-30T11:43:32.332Z,1021.83
2018-01-30T11:44:11.608Z,1021.73
2018-01-30T11:45:12.035Z,1021.80
2018-01-30T11:46:12.451Z,1021.73
2018-01-30T11:47:12.871Z,1021.77
2018-01-30T11:48:13.297Z,1021.73
2018-01-30T11:49:34.893Z,1021.74
2018-01-30T11:50:14.143Z,1021.67
2018-01-30T11:51:14.594Z,1021.75
2018-01-30T11:52:15.068Z,1021.76
2018-01-30T11:53:15.454Z,1021.81
2018-01-30T11:54:15.842Z,1021.76
2018-01-30T11:55:37.422Z,1021.77
2018-01-30T11:56:16.689Z,1021.71
2018-01-30T11:57:17.123Z,1021.83
2018-01-30T11:58:17.550Z,1021.84
2018-01-30T11:59:18.005Z,1021.85
2018-01-30T12:00:18.387Z,1021.73
2018-01-30T12:01:39.970Z,1021.83
2018-01-30T12:02:19.232Z,1021.82
2018-01-30T12:03:19.665Z,1021.90
2018-01-30T12:04:20.077Z,1021.91
2018-01-30T12:05:20.506Z,1021.94
2018-01-30T12:06:20.932Z,1021.98
2018-01-30T12:07:42.519Z,1021.93
2018-01-30T12:08:21.773Z,1021.90
2018-01-30T12:09:22.197Z,1021.76
2018-01-30T12:10:22.623Z,1021.76